sensor_id;sensor_type;location;lat;lon;timestamp;temperature;humidity
16744;DHT22;71724;-33.900;151.182;2024-03-02T00:00:50;24.80;85.20
16744;DHT22;71724;-33.900;151.182;2024-03-02T00:03:18;24.80;85.40
16744;DHT22;71724;-33.900;151.182;2024-03-02T00:05:50;24.80;85.40
16744;DHT22;71724;-33.900;151.182;2024-03-02T00:08:23;24.80;85.10
16744;DHT22;71724;-33.900;151.182;2024-03-02T00:11:03;24.80;85.10
16744;DHT22;71724;-33.900;151.182;2024-03-02T00:13:30;24.80;85.20
16744;DHT22;71724;-33.900;151.182;2024-03-02T00:15:59;24.80;85.00
16744;DHT22;71724;-33.900;151.182;2024-03-02T00:18:37;24.90;84.90
16744;DHT22;71724;-33.900;151.182;2024-03-02T00:21:07;24.90;84.50
16744;DHT22;71724;-33.900;151.182;2024-03-02T00:23:39;24.90;84.40
16744;DHT22;71724;-33.900;151.182;2024-03-02T00:26:12;24.90;84.40
16744;DHT22;71724;-33.900;151.182;2024-03-02T00:28:40;24.90;84.20
16744;DHT22;71724;-33.900;151.182;2024-03-02T00:31:14;24.90;83.90
16744;DHT22;71724;-33.900;151.182;2024-03-02T00:33:46;24.90;83.60
16744;DHT22;71724;-33.900;151.182;2024-03-02T00:36:16;24.90;83.50
16744;DHT22;71724;-33.900;151.182;2024-03-02T00:38:47;24.80;83.40
16744;DHT22;71724;-33.900;151.182;2024-03-02T00:41:24;24.80;83.20
16744;DHT22;71724;-33.900;151.182;2024-03-02T00:44:11;24.80;83.20
16744;DHT22;71724;-33.900;151.182;2024-03-02T00:46:40;24.80;82.90
16744;DHT22;71724;-33.900;151.182;2024-03-02T00:49:22;24.80;82.90
16744;DHT22;71724;-33.900;151.182;2024-03-02T00:51:51;24.80;83.00
16744;DHT22;71724;-33.900;151.182;2024-03-02T00:54:26;24.80;82.70
16744;DHT22;71724;-33.900;151.182;2024-03-02T00:56:54;24.80;82.50
16744;DHT22;71724;-33.900;151.182;2024-03-02T00:59:23;24.80;82.00
16744;DHT22;71724;-33.900;151.182;2024-03-02T01:01:50;24.80;81.80
16744;DHT22;71724;-33.900;151.182;2024-03-02T01:04:19;24.80;81.70
16744;DHT22;71724;-33.900;151.182;2024-03-02T01:06:46;24.70;82.10
16744;DHT22;71724;-33.900;151.182;2024-03-02T01:09:14;24.70;81.70
16744;DHT22;71724;-33.900;151.182;2024-03-02T01:11:43;24.70;81.60
16744;DHT22;71724;-33.900;151.182;2024-03-02T01:14:10;24.80;81.80
16744;DHT22;71724;-33.900;151.182;2024-03-02T01:16:37;24.70;81.50
16744;DHT22;71724;-33.900;151.182;2024-03-02T01:19:05;24.70;81.20
16744;DHT22;71724;-33.900;151.182;2024-03-02T01:21:32;24.70;81.10
16744;DHT22;71724;-33.900;151.182;2024-03-02T01:23:59;24.70;81.10
16744;DHT22;71724;-33.900;151.182;2024-03-02T01:26:27;24.70;81.40
16744;DHT22;71724;-33.900;151.182;2024-03-02T01:28:54;24.70;81.40
16744;DHT22;71724;-33.900;151.182;2024-03-02T01:31:22;24.80;81.50
16744;DHT22;71724;-33.900;151.182;2024-03-02T01:33:50;24.70;81.50
16744;DHT22;71724;-33.900;151.182;2024-03-02T01:36:17;24.70;81.30
16744;DHT22;71724;-33.900;151.182;2024-03-02T01:38:45;24.70;81.60
16744;DHT22;71724;-33.900;151.182;2024-03-02T01:41:12;24.70;81.60
16744;DHT22;71724;-33.900;151.182;2024-03-02T01:43:39;24.70;81.70
16744;DHT22;71724;-33.900;151.182;2024-03-02T01:46:07;24.70;81.60
16744;DHT22;71724;-33.900;151.182;2024-03-02T01:48:34;24.70;81.30
16744;DHT22;71724;-33.900;151.182;2024-03-02T01:51:01;24.70;81.40
16744;DHT22;71724;-33.900;151.182;2024-03-02T01:53:29;24.80;81.70
16744;DHT22;71724;-33.900;151.182;2024-03-02T01:55:57;24.80;81.60
16744;DHT22;71724;-33.900;151.182;2024-03-02T01:58:24;24.80;81.60
16744;DHT22;71724;-33.900;151.182;2024-03-02T02:00:51;24.70;81.80
16744;DHT22;71724;-33.900;151.182;2024-03-02T02:03:19;24.70;82.00
16744;DHT22;71724;-33.900;151.182;2024-03-02T02:05:46;24.60;82.20
16744;DHT22;71724;-33.900;151.182;2024-03-02T02:08:14;24.60;81.90
16744;DHT22;71724;-33.900;151.182;2024-03-02T02:10:42;24.60;81.90
16744;DHT22;71724;-33.900;151.182;2024-03-02T02:13:09;24.60;81.90
16744;DHT22;71724;-33.900;151.182;2024-03-02T02:15:37;24.60;81.10
16744;DHT22;71724;-33.900;151.182;2024-03-02T02:18:04;24.60;81.50
16744;DHT22;71724;-33.900;151.182;2024-03-02T02:20:32;24.60;81.00
16744;DHT22;71724;-33.900;151.182;2024-03-02T02:23:03;24.50;80.90
16744;DHT22;71724;-33.900;151.182;2024-03-02T02:25:36;24.50;81.00
16744;DHT22;71724;-33.900;151.182;2024-03-02T02:28:03;24.50;80.70
16744;DHT22;71724;-33.900;151.182;2024-03-02T02:30:32;24.40;81.00
16744;DHT22;71724;-33.900;151.182;2024-03-02T02:32:59;24.40;81.30
16744;DHT22;71724;-33.900;151.182;2024-03-02T02:35:30;24.50;80.90
16744;DHT22;71724;-33.900;151.182;2024-03-02T02:37:58;24.40;81.30
16744;DHT22;71724;-33.900;151.182;2024-03-02T02:40:30;24.30;81.40
16744;DHT22;71724;-33.900;151.182;2024-03-02T02:42:58;24.30;81.50
16744;DHT22;71724;-33.900;151.182;2024-03-02T02:45:29;24.30;81.70
16744;DHT22;71724;-33.900;151.182;2024-03-02T02:47:58;24.30;81.80
16744;DHT22;71724;-33.900;151.182;2024-03-02T02:50:27;24.20;82.00
16744;DHT22;71724;-33.900;151.182;2024-03-02T02:52:56;24.20;82.30
16744;DHT22;71724;-33.900;151.182;2024-03-02T02:55:23;24.20;82.30
16744;DHT22;71724;-33.900;151.182;2024-03-02T02:57:51;24.10;82.70
16744;DHT22;71724;-33.900;151.182;2024-03-02T03:00:18;24.10;82.90
16744;DHT22;71724;-33.900;151.182;2024-03-02T03:02:48;24.10;83.00
16744;DHT22;71724;-33.900;151.182;2024-03-02T03:05:16;24.10;83.20
16744;DHT22;71724;-33.900;151.182;2024-03-02T03:07:43;24.10;83.50
16744;DHT22;71724;-33.900;151.182;2024-03-02T03:10:14;24.00;83.40
16744;DHT22;71724;-33.900;151.182;2024-03-02T03:12:42;24.00;83.60
16744;DHT22;71724;-33.900;151.182;2024-03-02T03:15:10;24.00;84.00
16744;DHT22;71724;-33.900;151.182;2024-03-02T03:17:41;24.00;84.00
16744;DHT22;71724;-33.900;151.182;2024-03-02T03:20:10;23.90;83.80
16744;DHT22;71724;-33.900;151.182;2024-03-02T03:22:38;23.90;84.10
16744;DHT22;71724;-33.900;151.182;2024-03-02T03:25:11;23.90;84.20
16744;DHT22;71724;-33.900;151.182;2024-03-02T03:27:39;23.90;84.20
16744;DHT22;71724;-33.900;151.182;2024-03-02T03:30:10;23.90;84.50
16744;DHT22;71724;-33.900;151.182;2024-03-02T03:32:37;23.80;84.10
16744;DHT22;71724;-33.900;151.182;2024-03-02T03:35:11;23.70;84.30
16744;DHT22;71724;-33.900;151.182;2024-03-02T03:37:45;23.70;84.50
16744;DHT22;71724;-33.900;151.182;2024-03-02T03:40:13;23.80;84.80
16744;DHT22;71724;-33.900;151.182;2024-03-02T03:42:41;23.80;84.80
16744;DHT22;71724;-33.900;151.182;2024-03-02T03:45:08;23.80;84.90
16744;DHT22;71724;-33.900;151.182;2024-03-02T03:47:36;23.80;85.20
16744;DHT22;71724;-33.900;151.182;2024-03-02T03:50:03;23.80;85.20
16744;DHT22;71724;-33.900;151.182;2024-03-02T03:52:33;23.80;85.00
16744;DHT22;71724;-33.900;151.182;2024-03-02T03:55:01;23.70;85.00
16744;DHT22;71724;-33.900;151.182;2024-03-02T03:57:34;23.70;85.10
16744;DHT22;71724;-33.900;151.182;2024-03-02T04:00:05;23.70;85.20
16744;DHT22;71724;-33.900;151.182;2024-03-02T04:02:33;23.70;85.30
16744;DHT22;71724;-33.900;151.182;2024-03-02T04:05:02;23.60;85.40
16744;DHT22;71724;-33.900;151.182;2024-03-02T04:07:37;23.50;85.40
16744;DHT22;71724;-33.900;151.182;2024-03-02T04:10:13;23.50;85.50
16744;DHT22;71724;-33.900;151.182;2024-03-02T04:12:40;23.50;85.60
16744;DHT22;71724;-33.900;151.182;2024-03-02T04:15:08;23.50;85.60
16744;DHT22;71724;-33.900;151.182;2024-03-02T04:17:35;23.50;85.70
16744;DHT22;71724;-33.900;151.182;2024-03-02T04:20:03;23.50;85.50
16744;DHT22;71724;-33.900;151.182;2024-03-02T04:22:34;23.50;85.60
16744;DHT22;71724;-33.900;151.182;2024-03-02T04:25:02;23.50;85.60
16744;DHT22;71724;-33.900;151.182;2024-03-02T04:27:31;23.50;85.60
16744;DHT22;71724;-33.900;151.182;2024-03-02T04:30:00;23.50;85.50
16744;DHT22;71724;-33.900;151.182;2024-03-02T04:32:27;23.50;85.70
16744;DHT22;71724;-33.900;151.182;2024-03-02T04:34:55;23.60;85.70
16744;DHT22;71724;-33.900;151.182;2024-03-02T04:37:22;23.60;85.40
16744;DHT22;71724;-33.900;151.182;2024-03-02T04:39:49;23.60;85.10
16744;DHT22;71724;-33.900;151.182;2024-03-02T04:42:17;23.60;85.20
16744;DHT22;71724;-33.900;151.182;2024-03-02T04:44:44;23.60;85.00
16744;DHT22;71724;-33.900;151.182;2024-03-02T04:47:11;23.70;85.00
16744;DHT22;71724;-33.900;151.182;2024-03-02T04:49:39;23.70;85.00
16744;DHT22;71724;-33.900;151.182;2024-03-02T04:52:08;23.60;84.60
16744;DHT22;71724;-33.900;151.182;2024-03-02T04:54:35;23.70;84.50
16744;DHT22;71724;-33.900;151.182;2024-03-02T04:57:22;23.60;84.50
16744;DHT22;71724;-33.900;151.182;2024-03-02T04:59:49;23.60;84.20
16744;DHT22;71724;-33.900;151.182;2024-03-02T05:02:17;23.60;84.30
16744;DHT22;71724;-33.900;151.182;2024-03-02T05:04:44;23.60;84.20
16744;DHT22;71724;-33.900;151.182;2024-03-02T05:07:12;23.70;84.50
16744;DHT22;71724;-33.900;151.182;2024-03-02T05:09:40;23.70;84.50
16744;DHT22;71724;-33.900;151.182;2024-03-02T05:12:07;23.70;84.40
16744;DHT22;71724;-33.900;151.182;2024-03-02T05:14:44;23.70;84.30
16744;DHT22;71724;-33.900;151.182;2024-03-02T05:17:11;23.70;84.00
16744;DHT22;71724;-33.900;151.182;2024-03-02T05:19:38;23.70;84.10
16744;DHT22;71724;-33.900;151.182;2024-03-02T05:22:06;23.60;84.00
16744;DHT22;71724;-33.900;151.182;2024-03-02T05:24:33;23.70;83.80
16744;DHT22;71724;-33.900;151.182;2024-03-02T05:27:01;23.60;83.90
16744;DHT22;71724;-33.900;151.182;2024-03-02T05:29:28;23.60;83.90
16744;DHT22;71724;-33.900;151.182;2024-03-02T05:31:55;23.60;84.10
16744;DHT22;71724;-33.900;151.182;2024-03-02T05:34:23;23.60;84.00
16744;DHT22;71724;-33.900;151.182;2024-03-02T05:36:50;23.60;84.10
16744;DHT22;71724;-33.900;151.182;2024-03-02T05:39:18;23.60;84.10
16744;DHT22;71724;-33.900;151.182;2024-03-02T05:41:46;23.60;84.00
16744;DHT22;71724;-33.900;151.182;2024-03-02T05:44:15;23.60;84.10
16744;DHT22;71724;-33.900;151.182;2024-03-02T05:46:42;23.60;84.10
16744;DHT22;71724;-33.900;151.182;2024-03-02T05:49:10;23.60;84.20
16744;DHT22;71724;-33.900;151.182;2024-03-02T05:51:37;23.60;84.00
16744;DHT22;71724;-33.900;151.182;2024-03-02T05:54:05;23.60;83.90
16744;DHT22;71724;-33.900;151.182;2024-03-02T05:56:32;23.60;84.00
16744;DHT22;71724;-33.900;151.182;2024-03-02T05:59:00;23.60;83.90
16744;DHT22;71724;-33.900;151.182;2024-03-02T06:01:44;23.60;84.00
16744;DHT22;71724;-33.900;151.182;2024-03-02T06:04:21;23.60;83.80
16744;DHT22;71724;-33.900;151.182;2024-03-02T06:06:49;23.60;83.90
16744;DHT22;71724;-33.900;151.182;2024-03-02T06:09:16;23.60;84.00
16744;DHT22;71724;-33.900;151.182;2024-03-02T06:11:44;23.60;84.00
16744;DHT22;71724;-33.900;151.182;2024-03-02T06:14:11;23.60;83.90
16744;DHT22;71724;-33.900;151.182;2024-03-02T06:16:39;23.60;83.80
16744;DHT22;71724;-33.900;151.182;2024-03-02T06:19:06;23.60;83.80
16744;DHT22;71724;-33.900;151.182;2024-03-02T06:21:34;23.60;83.90
16744;DHT22;71724;-33.900;151.182;2024-03-02T06:24:01;23.60;83.70
16744;DHT22;71724;-33.900;151.182;2024-03-02T06:26:29;23.60;83.60
16744;DHT22;71724;-33.900;151.182;2024-03-02T06:28:58;23.70;83.70
16744;DHT22;71724;-33.900;151.182;2024-03-02T06:31:26;23.60;83.60
16744;DHT22;71724;-33.900;151.182;2024-03-02T06:33:55;23.70;83.60
16744;DHT22;71724;-33.900;151.182;2024-03-02T06:36:22;23.60;83.60
16744;DHT22;71724;-33.900;151.182;2024-03-02T06:38:49;23.60;83.60
16744;DHT22;71724;-33.900;151.182;2024-03-02T06:41:18;23.60;83.60
16744;DHT22;71724;-33.900;151.182;2024-03-02T06:43:45;23.60;83.60
16744;DHT22;71724;-33.900;151.182;2024-03-02T06:46:13;23.60;83.60
16744;DHT22;71724;-33.900;151.182;2024-03-02T06:48:41;23.60;83.60
16744;DHT22;71724;-33.900;151.182;2024-03-02T06:51:09;23.50;83.50
16744;DHT22;71724;-33.900;151.182;2024-03-02T06:53:36;23.60;83.70
16744;DHT22;71724;-33.900;151.182;2024-03-02T06:56:03;23.50;83.30
16744;DHT22;71724;-33.900;151.182;2024-03-02T06:58:31;23.50;83.20
16744;DHT22;71724;-33.900;151.182;2024-03-02T07:00:58;23.50;83.30
16744;DHT22;71724;-33.900;151.182;2024-03-02T07:03:27;23.50;83.50
16744;DHT22;71724;-33.900;151.182;2024-03-02T07:05:54;23.50;83.40
16744;DHT22;71724;-33.900;151.182;2024-03-02T07:08:21;23.50;83.50
16744;DHT22;71724;-33.900;151.182;2024-03-02T07:10:49;23.50;83.50
16744;DHT22;71724;-33.900;151.182;2024-03-02T07:13:16;23.50;83.60
16744;DHT22;71724;-33.900;151.182;2024-03-02T07:15:43;23.40;83.30
16744;DHT22;71724;-33.900;151.182;2024-03-02T07:18:11;23.40;83.50
16744;DHT22;71724;-33.900;151.182;2024-03-02T07:20:39;23.40;83.70
16744;DHT22;71724;-33.900;151.182;2024-03-02T07:23:06;23.40;83.40
16744;DHT22;71724;-33.900;151.182;2024-03-02T07:25:35;23.40;83.30
16744;DHT22;71724;-33.900;151.182;2024-03-02T07:28:03;23.40;83.20
16744;DHT22;71724;-33.900;151.182;2024-03-02T07:30:31;23.40;82.90
16744;DHT22;71724;-33.900;151.182;2024-03-02T07:32:58;23.40;83.00
16744;DHT22;71724;-33.900;151.182;2024-03-02T07:35:26;23.30;82.70
16744;DHT22;71724;-33.900;151.182;2024-03-02T07:37:54;23.30;82.90
16744;DHT22;71724;-33.900;151.182;2024-03-02T07:40:22;23.30;82.20
16744;DHT22;71724;-33.900;151.182;2024-03-02T07:42:49;23.30;82.40
16744;DHT22;71724;-33.900;151.182;2024-03-02T07:45:17;23.30;82.20
16744;DHT22;71724;-33.900;151.182;2024-03-02T07:47:46;23.30;82.40
16744;DHT22;71724;-33.900;151.182;2024-03-02T07:50:13;23.30;82.20
16744;DHT22;71724;-33.900;151.182;2024-03-02T07:52:41;23.30;81.80
16744;DHT22;71724;-33.900;151.182;2024-03-02T07:55:08;23.30;81.90
16744;DHT22;71724;-33.900;151.182;2024-03-02T07:57:36;23.30;81.90
16744;DHT22;71724;-33.900;151.182;2024-03-02T08:00:03;23.30;81.90
16744;DHT22;71724;-33.900;151.182;2024-03-02T08:02:31;23.30;82.40
16744;DHT22;71724;-33.900;151.182;2024-03-02T08:04:58;23.30;82.50
16744;DHT22;71724;-33.900;151.182;2024-03-02T08:07:25;23.30;82.10
16744;DHT22;71724;-33.900;151.182;2024-03-02T08:09:53;23.30;82.00
16744;DHT22;71724;-33.900;151.182;2024-03-02T08:12:20;23.30;82.30
16744;DHT22;71724;-33.900;151.182;2024-03-02T08:14:50;23.30;81.50
16744;DHT22;71724;-33.900;151.182;2024-03-02T08:17:17;23.30;81.90
16744;DHT22;71724;-33.900;151.182;2024-03-02T08:19:45;23.30;81.90
16744;DHT22;71724;-33.900;151.182;2024-03-02T08:22:15;23.30;82.00
16744;DHT22;71724;-33.900;151.182;2024-03-02T08:24:42;23.30;82.20
16744;DHT22;71724;-33.900;151.182;2024-03-02T08:27:10;23.30;82.00
16744;DHT22;71724;-33.900;151.182;2024-03-02T08:29:37;23.40;82.00
16744;DHT22;71724;-33.900;151.182;2024-03-02T08:32:05;23.40;81.80
16744;DHT22;71724;-33.900;151.182;2024-03-02T08:34:33;23.40;81.50
16744;DHT22;71724;-33.900;151.182;2024-03-02T08:37:02;23.30;81.30
16744;DHT22;71724;-33.900;151.182;2024-03-02T08:39:30;23.30;81.20
16744;DHT22;71724;-33.900;151.182;2024-03-02T08:41:57;23.30;81.30
16744;DHT22;71724;-33.900;151.182;2024-03-02T08:44:24;23.40;81.60
16744;DHT22;71724;-33.900;151.182;2024-03-02T08:46:52;23.30;81.20
16744;DHT22;71724;-33.900;151.182;2024-03-02T08:49:19;23.40;81.50
16744;DHT22;71724;-33.900;151.182;2024-03-02T08:51:47;23.30;81.00
16744;DHT22;71724;-33.900;151.182;2024-03-02T08:54:24;23.30;81.00
16744;DHT22;71724;-33.900;151.182;2024-03-02T08:56:51;23.30;80.10
16744;DHT22;71724;-33.900;151.182;2024-03-02T08:59:19;23.30;80.60
16744;DHT22;71724;-33.900;151.182;2024-03-02T09:01:46;23.30;80.70
16744;DHT22;71724;-33.900;151.182;2024-03-02T09:04:13;23.30;80.60
16744;DHT22;71724;-33.900;151.182;2024-03-02T09:06:41;23.20;80.30
16744;DHT22;71724;-33.900;151.182;2024-03-02T09:09:08;23.30;80.70
16744;DHT22;71724;-33.900;151.182;2024-03-02T09:11:36;23.30;80.80
16744;DHT22;71724;-33.900;151.182;2024-03-02T09:14:03;23.30;80.30
16744;DHT22;71724;-33.900;151.182;2024-03-02T09:16:31;23.20;80.40
16744;DHT22;71724;-33.900;151.182;2024-03-02T09:18:59;23.30;80.60
16744;DHT22;71724;-33.900;151.182;2024-03-02T09:21:27;23.20;80.10
16744;DHT22;71724;-33.900;151.182;2024-03-02T09:23:56;23.20;79.80
16744;DHT22;71724;-33.900;151.182;2024-03-02T09:26:23;23.20;79.70
16744;DHT22;71724;-33.900;151.182;2024-03-02T09:28:51;23.20;79.80
16744;DHT22;71724;-33.900;151.182;2024-03-02T09:31:19;23.20;79.80
16744;DHT22;71724;-33.900;151.182;2024-03-02T09:33:47;23.20;79.90
16744;DHT22;71724;-33.900;151.182;2024-03-02T09:36:22;23.20;79.80
16744;DHT22;71724;-33.900;151.182;2024-03-02T09:38:49;23.10;79.30
16744;DHT22;71724;-33.900;151.182;2024-03-02T09:41:17;23.10;79.50
16744;DHT22;71724;-33.900;151.182;2024-03-02T09:43:45;23.20;79.80
16744;DHT22;71724;-33.900;151.182;2024-03-02T09:46:14;23.20;80.00
16744;DHT22;71724;-33.900;151.182;2024-03-02T09:48:43;23.20;79.90
16744;DHT22;71724;-33.900;151.182;2024-03-02T09:51:12;23.20;80.00
16744;DHT22;71724;-33.900;151.182;2024-03-02T09:53:41;23.20;80.00
16744;DHT22;71724;-33.900;151.182;2024-03-02T09:56:10;23.20;79.90
16744;DHT22;71724;-33.900;151.182;2024-03-02T09:58:39;23.20;79.70
16744;DHT22;71724;-33.900;151.182;2024-03-02T10:01:07;23.20;79.30
16744;DHT22;71724;-33.900;151.182;2024-03-02T10:03:34;23.20;79.30
16744;DHT22;71724;-33.900;151.182;2024-03-02T10:06:23;23.20;79.30
16744;DHT22;71724;-33.900;151.182;2024-03-02T10:08:51;23.20;79.00
16744;DHT22;71724;-33.900;151.182;2024-03-02T10:11:29;23.10;78.80
16744;DHT22;71724;-33.900;151.182;2024-03-02T10:14:15;23.20;79.10
16744;DHT22;71724;-33.900;151.182;2024-03-02T10:16:44;23.20;79.00
16744;DHT22;71724;-33.900;151.182;2024-03-02T10:19:22;23.20;79.00
16744;DHT22;71724;-33.900;151.182;2024-03-02T10:21:53;23.20;79.10
16744;DHT22;71724;-33.900;151.182;2024-03-02T10:24:22;23.20;79.00
16744;DHT22;71724;-33.900;151.182;2024-03-02T10:26:52;23.20;79.20
16744;DHT22;71724;-33.900;151.182;2024-03-02T10:29:20;23.20;78.90
16744;DHT22;71724;-33.900;151.182;2024-03-02T10:31:49;23.20;79.30
16744;DHT22;71724;-33.900;151.182;2024-03-02T10:34:16;23.20;78.70
16744;DHT22;71724;-33.900;151.182;2024-03-02T10:36:44;23.20;78.90
16744;DHT22;71724;-33.900;151.182;2024-03-02T10:39:15;23.20;78.70
16744;DHT22;71724;-33.900;151.182;2024-03-02T10:41:42;23.20;79.00
16744;DHT22;71724;-33.900;151.182;2024-03-02T10:44:10;23.20;79.00
16744;DHT22;71724;-33.900;151.182;2024-03-02T10:46:38;23.20;79.30
16744;DHT22;71724;-33.900;151.182;2024-03-02T10:49:06;23.20;79.10
16744;DHT22;71724;-33.900;151.182;2024-03-02T10:51:34;23.20;78.80
16744;DHT22;71724;-33.900;151.182;2024-03-02T10:54:05;23.20;78.90
16744;DHT22;71724;-33.900;151.182;2024-03-02T10:56:36;23.20;78.80
16744;DHT22;71724;-33.900;151.182;2024-03-02T10:59:21;23.20;79.10
16744;DHT22;71724;-33.900;151.182;2024-03-02T11:01:49;23.20;79.00
16744;DHT22;71724;-33.900;151.182;2024-03-02T11:04:18;23.20;79.10
16744;DHT22;71724;-33.900;151.182;2024-03-02T11:06:49;23.20;79.00
16744;DHT22;71724;-33.900;151.182;2024-03-02T11:09:27;23.20;79.10
16744;DHT22;71724;-33.900;151.182;2024-03-02T11:12:34;23.20;79.00
16744;DHT22;71724;-33.900;151.182;2024-03-02T11:15:09;23.20;79.00
16744;DHT22;71724;-33.900;151.182;2024-03-02T11:17:37;23.20;79.30
16744;DHT22;71724;-33.900;151.182;2024-03-02T11:20:08;23.20;79.40
16744;DHT22;71724;-33.900;151.182;2024-03-02T11:22:37;23.20;79.30
16744;DHT22;71724;-33.900;151.182;2024-03-02T11:25:04;23.20;79.40
16744;DHT22;71724;-33.900;151.182;2024-03-02T11:33:07;23.20;79.50
16744;DHT22;71724;-33.900;151.182;2024-03-02T11:35:40;23.20;79.30
16744;DHT22;71724;-33.900;151.182;2024-03-02T11:38:15;23.20;79.20
16744;DHT22;71724;-33.900;151.182;2024-03-02T11:40:42;23.30;79.20
16744;DHT22;71724;-33.900;151.182;2024-03-02T11:43:10;23.30;79.50
16744;DHT22;71724;-33.900;151.182;2024-03-02T11:45:38;23.20;78.70
16744;DHT22;71724;-33.900;151.182;2024-03-02T11:48:15;23.20;79.10
16744;DHT22;71724;-33.900;151.182;2024-03-02T11:50:51;23.20;79.30
16744;DHT22;71724;-33.900;151.182;2024-03-02T11:53:19;23.20;79.40
16744;DHT22;71724;-33.900;151.182;2024-03-02T11:55:47;23.20;79.50
16744;DHT22;71724;-33.900;151.182;2024-03-02T11:58:16;23.20;79.80
16744;DHT22;71724;-33.900;151.182;2024-03-02T12:00:50;23.20;79.30
16744;DHT22;71724;-33.900;151.182;2024-03-02T12:03:17;23.20;79.30
16744;DHT22;71724;-33.900;151.182;2024-03-02T12:05:55;23.20;79.60
16744;DHT22;71724;-33.900;151.182;2024-03-02T12:08:24;23.30;79.50
16744;DHT22;71724;-33.900;151.182;2024-03-02T12:11:01;23.20;79.50
16744;DHT22;71724;-33.900;151.182;2024-03-02T12:13:29;23.30;79.80
16744;DHT22;71724;-33.900;151.182;2024-03-02T12:15:56;23.30;79.60
16744;DHT22;71724;-33.900;151.182;2024-03-02T12:18:25;23.30;79.40
16744;DHT22;71724;-33.900;151.182;2024-03-02T12:20:52;23.30;79.30
16744;DHT22;71724;-33.900;151.182;2024-03-02T12:23:23;23.20;79.40
16744;DHT22;71724;-33.900;151.182;2024-03-02T12:25:51;23.20;79.40
16744;DHT22;71724;-33.900;151.182;2024-03-02T12:28:20;23.20;79.50
16744;DHT22;71724;-33.900;151.182;2024-03-02T12:30:47;23.20;79.40
16744;DHT22;71724;-33.900;151.182;2024-03-02T12:33:16;23.20;79.60
16744;DHT22;71724;-33.900;151.182;2024-03-02T12:35:43;23.20;79.50
16744;DHT22;71724;-33.900;151.182;2024-03-02T12:38:11;23.20;79.50
16744;DHT22;71724;-33.900;151.182;2024-03-02T12:40:38;23.20;79.50
16744;DHT22;71724;-33.900;151.182;2024-03-02T12:43:06;23.20;79.30
16744;DHT22;71724;-33.900;151.182;2024-03-02T12:45:34;23.20;79.40
16744;DHT22;71724;-33.900;151.182;2024-03-02T12:48:02;23.20;79.30
16744;DHT22;71724;-33.900;151.182;2024-03-02T12:50:30;23.20;79.60
16744;DHT22;71724;-33.900;151.182;2024-03-02T12:52:57;23.20;79.20
16744;DHT22;71724;-33.900;151.182;2024-03-02T12:55:25;23.20;79.60
16744;DHT22;71724;-33.900;151.182;2024-03-02T12:57:53;23.20;79.30
16744;DHT22;71724;-33.900;151.182;2024-03-02T13:00:21;23.20;79.30
16744;DHT22;71724;-33.900;151.182;2024-03-02T13:02:49;23.20;79.70
16744;DHT22;71724;-33.900;151.182;2024-03-02T13:05:17;23.20;79.20
16744;DHT22;71724;-33.900;151.182;2024-03-02T13:07:47;23.20;79.40
16744;DHT22;71724;-33.900;151.182;2024-03-02T13:10:15;23.20;79.40
16744;DHT22;71724;-33.900;151.182;2024-03-02T13:12:43;23.20;79.70
16744;DHT22;71724;-33.900;151.182;2024-03-02T13:15:10;23.20;79.30
16744;DHT22;71724;-33.900;151.182;2024-03-02T13:17:39;23.20;79.40
16744;DHT22;71724;-33.900;151.182;2024-03-02T13:20:07;23.20;79.60
16744;DHT22;71724;-33.900;151.182;2024-03-02T13:22:37;23.20;79.80
16744;DHT22;71724;-33.900;151.182;2024-03-02T13:25:07;23.20;80.20
16744;DHT22;71724;-33.900;151.182;2024-03-02T13:27:37;23.20;79.70
16744;DHT22;71724;-33.900;151.182;2024-03-02T13:30:05;23.30;80.60
16744;DHT22;71724;-33.900;151.182;2024-03-02T13:32:33;23.30;80.90
16744;DHT22;71724;-33.900;151.182;2024-03-02T13:35:00;23.30;80.60
16744;DHT22;71724;-33.900;151.182;2024-03-02T13:37:29;23.20;80.00
16744;DHT22;71724;-33.900;151.182;2024-03-02T13:39:56;23.20;80.10
16744;DHT22;71724;-33.900;151.182;2024-03-02T13:42:24;23.20;80.20
16744;DHT22;71724;-33.900;151.182;2024-03-02T13:44:52;23.20;79.90
16744;DHT22;71724;-33.900;151.182;2024-03-02T13:47:19;23.20;79.90
16744;DHT22;71724;-33.900;151.182;2024-03-02T13:49:47;23.20;79.80
16744;DHT22;71724;-33.900;151.182;2024-03-02T13:52:15;23.20;80.10
16744;DHT22;71724;-33.900;151.182;2024-03-02T13:54:48;23.20;80.60
16744;DHT22;71724;-33.900;151.182;2024-03-02T13:57:16;23.20;80.60
16744;DHT22;71724;-33.900;151.182;2024-03-02T13:59:46;23.10;80.20
16744;DHT22;71724;-33.900;151.182;2024-03-02T14:02:14;23.20;80.50
16744;DHT22;71724;-33.900;151.182;2024-03-02T14:04:42;23.10;80.00
16744;DHT22;71724;-33.900;151.182;2024-03-02T14:07:09;23.00;79.60
16744;DHT22;71724;-33.900;151.182;2024-03-02T14:09:39;22.90;80.10
16744;DHT22;71724;-33.900;151.182;2024-03-02T14:12:07;22.90;79.80
16744;DHT22;71724;-33.900;151.182;2024-03-02T14:14:35;22.90;79.70
16744;DHT22;71724;-33.900;151.182;2024-03-02T14:17:03;22.80;79.70
16744;DHT22;71724;-33.900;151.182;2024-03-02T14:19:32;22.80;79.60
16744;DHT22;71724;-33.900;151.182;2024-03-02T14:22:00;22.80;79.50
16744;DHT22;71724;-33.900;151.182;2024-03-02T14:24:28;22.80;80.40
16744;DHT22;71724;-33.900;151.182;2024-03-02T14:26:56;22.80;81.30
16744;DHT22;71724;-33.900;151.182;2024-03-02T14:29:28;22.80;80.40
16744;DHT22;71724;-33.900;151.182;2024-03-02T14:31:56;22.80;80.10
16744;DHT22;71724;-33.900;151.182;2024-03-02T14:34:23;22.80;80.40
16744;DHT22;71724;-33.900;151.182;2024-03-02T14:36:51;22.80;80.50
16744;DHT22;71724;-33.900;151.182;2024-03-02T14:39:18;22.70;80.60
16744;DHT22;71724;-33.900;151.182;2024-03-02T14:41:46;22.80;80.50
16744;DHT22;71724;-33.900;151.182;2024-03-02T14:44:13;22.80;81.60
16744;DHT22;71724;-33.900;151.182;2024-03-02T14:46:42;22.80;81.20
16744;DHT22;71724;-33.900;151.182;2024-03-02T14:49:09;22.80;81.40
16744;DHT22;71724;-33.900;151.182;2024-03-02T14:51:37;22.80;81.20
16744;DHT22;71724;-33.900;151.182;2024-03-02T14:54:05;22.80;81.40
16744;DHT22;71724;-33.900;151.182;2024-03-02T14:56:32;22.80;81.20
16744;DHT22;71724;-33.900;151.182;2024-03-02T14:59:00;22.80;81.10
16744;DHT22;71724;-33.900;151.182;2024-03-02T15:01:27;22.80;81.10
16744;DHT22;71724;-33.900;151.182;2024-03-02T15:03:55;22.70;81.20